Time;durP1;ratioP1;P1;durP2;ratioP2;P2;SDS_P1;SDS_P2;PMS_P1;PMS_P2;Temp;Humidity;BMP_temperature;BMP_pressure;BME280_temperature;BME280_humidity;BME280_pressure;Samples;Min_cycle;Max_cycle;Signal;HPM_P1;HPM_P2
2022/02/24 00:01:55;;;;;;;94.43;44.72;;;-2.70;99.90;;;;;;4962836;28;20030;-81
2022/02/24 00:04:21;;;;;;;102.22;46.22;;;-2.70;99.90;;;;;;4980267;28;20031;-81
2022/02/24 00:06:46;;;;;;;97.97;44.17;;;-2.70;99.90;;;;;;4980167;28;20023;-75
2022/02/24 00:09:12;;;;;;;85.57;38.97;;;-2.70;99.90;;;;;;4980288;28;20077;-77
2022/02/24 00:11:38;;;;;;;71.18;34.42;;;-2.70;99.90;;;;;;4980109;28;20405;-75
2022/02/24 00:14:03;;;;;;;80.68;38.83;;;-2.70;99.90;;;;;;4980157;28;20023;-76
2022/02/24 00:16:29;;;;;;;85.22;39.22;;;-2.70;99.90;;;;;;4976363;28;20058;-75
2022/02/24 00:18:55;;;;;;;92.93;40.63;;;-2.70;99.90;;;;;;4977119;28;20550;-78
2022/02/24 00:21:21;;;;;;;102.65;41.17;;;-2.70;99.90;;;;;;4956380;28;20163;-75
2022/02/24 00:23:47;;;;;;;95.43;42.40;;;-2.80;99.90;;;;;;4957754;28;20098;-76
2022/02/24 00:26:13;;;;;;;92.60;38.83;;;-2.80;99.90;;;;;;4956349;28;20028;-81
2022/02/24 00:28:39;;;;;;;87.28;36.58;;;-2.80;99.90;;;;;;4957562;28;20107;-76
2022/02/24 00:31:07;;;;;;;87.15;36.60;;;-2.80;99.90;;;;;;4956230;28;20122;-75
2022/02/24 00:33:32;;;;;;;86.93;39.70;;;-2.80;99.90;;;;;;4957556;28;20023;-75
2022/02/24 00:35:58;;;;;;;94.07;40.90;;;-2.90;99.90;;;;;;4957391;28;20541;-80
2022/02/24 00:38:23;;;;;;;94.72;39.80;;;-2.90;99.90;;;;;;4957544;28;20110;-81
2022/02/24 00:40:49;;;;;;;87.80;42.55;;;-2.90;99.90;;;;;;4957434;28;20031;-80
2022/02/24 00:43:15;;;;;;;87.70;40.80;;;-3.00;99.90;;;;;;4956151;28;20015;-81
2022/02/24 00:45:40;;;;;;;96.63;44.17;;;-3.00;99.90;;;;;;4957496;28;20032;-80
2022/02/24 00:48:08;;;;;;;97.22;43.30;;;-3.10;99.90;;;;;;4957286;28;20114;-75
2022/02/24 00:50:34;;;;;;;93.57;42.08;;;-3.10;99.90;;;;;;4955973;29;20022;-80
2022/02/24 00:53:00;;;;;;;95.65;41.30;;;-3.10;99.90;;;;;;4957317;28;20473;-80
2022/02/24 00:55:26;;;;;;;82.03;39.38;;;-3.10;99.90;;;;;;4955899;28;20051;-80
2022/02/24 00:57:52;;;;;;;97.65;42.22;;;-3.10;99.90;;;;;;4957180;28;20034;-75
2022/02/24 01:00:18;;;;;;;111.15;48.95;;;-3.10;99.90;;;;;;4957141;28;20020;-75
2022/02/24 01:02:44;;;;;;;99.20;46.63;;;-3.10;99.90;;;;;;4956909;28;20465;-75
2022/02/24 01:05:09;;;;;;;96.20;44.50;;;-3.10;99.90;;;;;;4957045;28;20027;-76
2022/02/24 01:07:35;;;;;;;107.35;45.88;;;-3.20;99.90;;;;;;4956995;28;20031;-81
2022/02/24 01:10:00;;;;;;;94.00;41.45;;;-3.20;99.90;;;;;;4955657;28;20500;-76
2022/02/24 01:12:26;;;;;;;92.38;41.42;;;-3.30;99.90;;;;;;4956731;28;20070;-75
2022/02/24 01:14:52;;;;;;;88.60;42.75;;;-3.30;99.90;;;;;;4955618;28;20027;-80
2022/02/24 01:17:17;;;;;;;96.57;41.78;;;-3.30;99.90;;;;;;4956727;28;20134;-75
2022/02/24 01:19:43;;;;;;;83.30;38.65;;;-3.30;99.90;;;;;;4958311;28;20037;-80
2022/02/24 01:22:10;;;;;;;86.40;37.53;;;-3.30;99.90;;;;;;4976021;28;20366;-75
2022/02/24 01:24:36;;;;;;;98.07;38.63;;;-3.30;99.90;;;;;;4975942;28;20042;-81
2022/02/24 01:27:02;;;;;;;80.22;37.22;;;-3.40;99.90;;;;;;4974777;28;20030;-81
2022/02/24 01:29:27;;;;;;;78.40;36.15;;;-3.40;99.90;;;;;;4975810;28;20023;-76
2022/02/24 01:31:53;;;;;;;65.90;32.17;;;-3.40;99.90;;;;;;4975673;28;20034;-80
2022/02/24 01:34:19;;;;;;;72.10;32.13;;;-3.40;99.90;;;;;;4975827;28;20126;-80
2022/02/24 01:36:46;;;;;;;63.58;30.58;;;-3.40;99.90;;;;;;4958346;28;20027;-80
2022/02/24 01:39:11;;;;;;;70.70;32.00;;;-3.40;99.90;;;;;;4975718;28;20027;-80
2022/02/24 01:41:37;;;;;;;74.25;32.15;;;-3.50;99.90;;;;;;4975541;28;20033;-80
2022/02/24 01:44:10;;;;;;;72.65;32.72;;;-3.50;99.90;;;;;;4975607;28;20081;-81
2022/02/24 01:46:36;;;;;;;72.50;33.65;;;-3.50;99.90;;;;;;4975477;28;20026;-75
2022/02/24 01:49:04;;;;;;;72.25;31.88;;;-3.50;99.90;;;;;;4975423;28;20046;-76
2022/02/24 01:51:31;;;;;;;57.85;28.75;;;-3.50;99.90;;;;;;4975290;28;20054;-80
2022/02/24 01:53:56;;;;;;;63.13;30.27;;;-3.50;99.90;;;;;;4958033;28;20378;-75
2022/02/24 01:56:22;;;;;;;72.03;30.63;;;-3.50;99.90;;;;;;4975289;28;20038;-75
2022/02/24 01:58:48;;;;;;;70.57;32.38;;;-3.60;99.90;;;;;;4974103;28;20436;-76
2022/02/24 02:01:14;;;;;;;73.63;29.75;;;-3.60;99.90;;;;;;4973901;28;20485;-75
2022/02/24 02:03:40;;;;;;;66.72;29.10;;;-3.60;99.90;;;;;;4975168;28;20019;-76
2022/02/24 02:06:06;;;;;;;67.82;29.52;;;-3.60;99.90;;;;;;4975027;28;20469;-75
2022/02/24 02:08:32;;;;;;;75.57;31.20;;;-3.70;99.90;;;;;;4975101;28;20030;-75
2022/02/24 02:10:58;;;;;;;70.18;30.23;;;-3.70;99.90;;;;;;4974929;28;20039;-81
2022/02/24 02:13:24;;;;;;;65.00;30.55;;;-3.80;99.90;;;;;;4957808;28;20397;-80
2022/02/24 02:15:52;;;;;;;67.80;33.42;;;-3.80;99.90;;;;;;4957607;28;20416;-75
2022/02/24 02:18:19;;;;;;;71.43;33.08;;;-3.80;99.90;;;;;;4974898;28;20158;-80
2022/02/24 02:20:45;;;;;;;70.28;32.03;;;-3.80;99.90;;;;;;4957362;28;20049;-81
2022/02/24 02:23:11;;;;;;;86.72;36.65;;;-3.80;99.90;;;;;;4974770;28;20022;-75
2022/02/24 02:25:37;;;;;;;78.00;33.50;;;-3.80;99.90;;;;;;4974563;28;20027;-75
2022/02/24 02:28:03;;;;;;;76.25;31.00;;;-3.80;99.90;;;;;;4957475;28;20038;-80
2022/02/24 02:30:29;;;;;;;75.80;30.38;;;-3.90;99.90;;;;;;4974787;28;20027;-81
2022/02/24 02:32:54;;;;;;;68.00;29.13;;;-3.90;99.90;;;;;;4973442;28;20046;-80
2022/02/24 02:35:20;;;;;;;71.57;30.73;;;-3.90;99.90;;;;;;4957531;28;20058;-81
2022/02/24 02:37:46;;;;;;;61.20;28.95;;;-4.00;99.90;;;;;;4974250;28;20481;-75
2022/02/24 02:40:12;;;;;;;63.05;29.70;;;-4.00;99.90;;;;;;4957318;28;20069;-80
2022/02/24 02:42:38;;;;;;;51.95;25.42;;;-4.00;99.90;;;;;;4974673;28;20019;-78
2022/02/24 02:45:06;;;;;;;66.07;32.60;;;-4.00;99.90;;;;;;4974598;28;20109;-76
2022/02/24 02:47:32;;;;;;;62.38;28.23;;;-4.00;99.90;;;;;;4956964;28;20023;-74
2022/02/24 02:49:57;;;;;;;60.28;25.80;;;-4.00;99.90;;;;;;4957262;28;20026;-81
2022/02/24 02:52:23;;;;;;;58.25;28.63;;;-4.00;99.90;;;;;;4974346;28;20035;-81
2022/02/24 02:54:55;;;;;;;62.50;28.52;;;-4.00;99.90;;;;;;4957023;28;20066;-81
2022/02/24 02:57:21;;;;;;;59.22;26.50;;;-4.10;99.90;;;;;;4957195;28;20022;-81
2022/02/24 02:59:47;;;;;;;67.45;29.02;;;-4.00;99.90;;;;;;4957036;28;20065;-76
2022/02/24 03:02:12;;;;;;;82.15;34.03;;;-4.00;99.90;;;;;;4974298;28;20033;-81
2022/02/24 03:04:38;;;;;;;77.05;34.38;;;-4.10;99.90;;;;;;4974311;28;20027;-81
2022/02/24 03:07:03;;;;;;;67.82;32.78;;;-4.10;99.90;;;;;;4957086;28;20035;-74
2022/02/24 03:09:29;;;;;;;97.63;39.75;;;-4.10;99.90;;;;;;4974241;28;20029;-81
2022/02/24 03:11:56;;;;;;;125.15;51.75;;;-4.20;99.90;;;;;;4974212;28;20030;-75
2022/02/24 03:14:21;;;;;;;120.45;51.83;;;-4.20;99.90;;;;;;4974145;28;20023;-81
2022/02/24 03:16:47;;;;;;;130.27;52.70;;;-4.30;99.90;;;;;;4956874;28;20449;-75
2022/02/24 03:19:13;;;;;;;180.07;72.05;;;-4.30;99.90;;;;;;4974207;28;20055;-80
2022/02/24 03:21:38;;;;;;;166.65;65.13;;;-4.30;99.90;;;;;;4974263;28;20051;-75
2022/02/24 03:24:05;;;;;;;126.40;53.78;;;-4.30;99.90;;;;;;4974264;28;20019;-76
2022/02/24 03:26:31;;;;;;;167.65;64.28;;;-4.30;99.90;;;;;;4974225;28;20019;-80
2022/02/24 03:28:56;;;;;;;161.13;60.88;;;-4.30;99.90;;;;;;4974186;28;20072;-80
2022/02/24 03:31:22;;;;;;;126.15;53.30;;;-4.30;99.90;;;;;;4974059;28;20039;-80
2022/02/24 03:33:48;;;;;;;92.43;41.65;;;-4.30;99.90;;;;;;4971055;28;20030;-76
2022/02/24 03:36:14;;;;;;;87.75;37.42;;;-4.40;99.90;;;;;;4937529;29;20098;-80
2022/02/24 03:38:39;;;;;;;83.72;34.55;;;-4.40;99.90;;;;;;4937846;29;20496;-80
2022/02/24 03:41:05;;;;;;;70.18;33.38;;;-4.40;99.90;;;;;;4937589;28;20114;-75
2022/02/24 03:43:31;;;;;;;69.07;32.70;;;-4.40;99.90;;;;;;4954800;29;20023;-75
2022/02/24 03:45:56;;;;;;;72.18;31.05;;;-4.40;99.90;;;;;;4937426;28;20027;-75
2022/02/24 03:48:22;;;;;;;80.18;32.92;;;-4.40;99.90;;;;;;4954755;29;20457;-76
2022/02/24 03:50:47;;;;;;;88.53;37.63;;;-4.40;99.90;;;;;;4956500;28;20078;-81
2022/02/24 03:53:13;;;;;;;77.38;35.15;;;-4.40;99.90;;;;;;4958354;28;20075;-76
2022/02/24 03:55:38;;;;;;;80.60;31.88;;;-4.40;99.90;;;;;;4958220;29;20028;-80
2022/02/24 03:58:04;;;;;;;71.25;31.13;;;-4.40;99.90;;;;;;4958203;28;20440;-75
2022/02/24 04:00:30;;;;;;;73.43;33.03;;;-4.40;99.90;;;;;;4958178;29;20023;-75
2022/02/24 04:02:55;;;;;;;77.88;33.50;;;-4.40;99.90;;;;;;4940882;29;20031;-81
2022/02/24 04:05:21;;;;;;;81.03;33.88;;;-4.50;99.90;;;;;;4940794;29;20046;-80
2022/02/24 04:07:47;;;;;;;74.95;31.73;;;-4.40;99.90;;;;;;4940989;29;20035;-80
2022/02/24 04:10:13;;;;;;;80.25;31.63;;;-4.50;99.90;;;;;;4957878;28;20504;-75
2022/02/24 04:12:38;;;;;;;60.83;29.30;;;-4.50;99.90;;;;;;4957867;28;20118;-75
2022/02/24 04:15:04;;;;;;;74.75;28.85;;;-4.50;99.90;;;;;;4957953;28;20019;-75
2022/02/24 04:17:30;;;;;;;65.03;29.60;;;-4.50;99.90;;;;;;4957762;28;20501;-80
2022/02/24 04:19:55;;;;;;;73.35;30.10;;;-4.50;99.90;;;;;;4940440;29;20055;-76
2022/02/24 04:22:21;;;;;;;65.35;30.73;;;-4.50;99.90;;;;;;4940555;29;20133;-79
2022/02/24 04:24:47;;;;;;;65.78;28.42;;;-4.50;99.90;;;;;;4957633;28;20019;-75
2022/02/24 04:27:12;;;;;;;76.88;30.15;;;-4.60;99.90;;;;;;4940393;29;20023;-81
2022/02/24 04:29:38;;;;;;;62.80;29.83;;;-4.60;99.90;;;;;;4957675;28;20035;-75
2022/02/24 04:32:04;;;;;;;60.08;28.25;;;-4.60;99.90;;;;;;4957561;28;20402;-81
2022/02/24 04:49:04;;;;;;;65.13;29.90;;;-4.80;99.90;;;;;;5131618;27;20898;-80
2022/02/24 04:51:30;;;;;;;61.58;29.20;;;-4.40;99.90;;;;;;5131713;27;20107;-75
2022/02/24 04:53:56;;;;;;;69.45;28.30;;;-4.40;99.90;;;;;;5131504;27;20453;-75
2022/02/24 04:56:21;;;;;;;63.35;29.33;;;-4.30;99.90;;;;;;5130105;28;20012;-74
2022/02/24 04:58:47;;;;;;;67.10;28.60;;;-4.20;99.90;;;;;;5130128;27;20418;-74
2022/02/24 05:01:13;;;;;;;66.75;26.92;;;-4.10;99.90;;;;;;5130108;27;20042;-79
2022/02/24 05:03:38;;;;;;;75.80;29.45;;;-3.90;99.90;;;;;;5129998;27;20023;-74
2022/02/24 05:06:05;;;;;;;67.32;29.58;;;-3.80;99.90;;;;;;5129861;27;20024;-80
2022/02/24 05:08:31;;;;;;;63.75;26.77;;;-3.80;99.90;;;;;;5129812;27;20020;-75
2022/02/24 05:10:56;;;;;;;56.00;26.45;;;-3.80;99.90;;;;;;5131052;27;20217;-81
2022/02/24 05:13:22;;;;;;;59.85;28.25;;;-3.80;99.90;;;;;;5131019;27;20581;-79
2022/02/24 05:15:49;;;;;;;54.10;26.45;;;-3.70;99.90;;;;;;5129675;27;20016;-80
2022/02/24 05:18:14;;;;;;;55.40;27.27;;;-3.70;99.90;;;;;;5129431;27;20035;-75
2022/02/24 05:20:40;;;;;;;67.53;27.55;;;-3.70;99.90;;;;;;5129551;27;20026;-81
2022/02/24 05:23:06;;;;;;;72.35;29.92;;;-3.70;99.90;;;;;;5130703;27;20047;-75
2022/02/24 05:25:35;;;;;;;69.00;28.02;;;-3.70;99.90;;;;;;5130741;27;20023;-75
2022/02/24 05:28:06;;;;;;;63.47;26.50;;;-3.80;99.90;;;;;;5129333;27;20361;-81
2022/02/24 05:30:32;;;;;;;58.63;26.23;;;-3.90;99.90;;;;;;5130737;27;20023;-81
2022/02/24 05:32:57;;;;;;;64.72;26.15;;;-4.00;99.90;;;;;;5129431;27;20024;-75
2022/02/24 05:35:23;;;;;;;67.68;28.73;;;-4.10;99.90;;;;;;5129402;27;20114;-76
2022/02/24 05:37:48;;;;;;;63.65;28.33;;;-4.20;99.90;;;;;;5130339;27;20110;-80
2022/02/24 05:40:14;;;;;;;53.05;24.95;;;-4.30;99.90;;;;;;5130537;27;20373;-80
2022/02/24 05:42:40;;;;;;;65.55;25.80;;;-4.40;99.90;;;;;;5129146;27;20022;-80
2022/02/24 05:45:06;;;;;;;52.30;24.98;;;-4.40;99.90;;;;;;5124637;27;20035;-80
2022/02/24 05:47:32;;;;;;;53.10;23.23;;;-4.40;99.90;;;;;;5108696;28;20056;-81
2022/02/24 05:49:57;;;;;;;63.97;28.77;;;-4.40;99.90;;;;;;5095059;28;20361;-81
2022/02/24 05:52:23;;;;;;;55.47;26.27;;;-4.40;99.90;;;;;;5094544;28;20016;-80
2022/02/24 05:54:48;;;;;;;62.67;25.58;;;-4.50;99.90;;;;;;5095969;28;20069;-80
2022/02/24 05:57:14;;;;;;;61.58;27.23;;;-4.40;99.90;;;;;;5094426;28;20035;-80
2022/02/24 05:59:39;;;;;;;55.63;26.98;;;-4.50;99.90;;;;;;5095455;28;20477;-81
2022/02/24 06:02:05;;;;;;;57.00;27.83;;;-4.40;99.90;;;;;;5094340;28;20469;-80
2022/02/24 06:04:30;;;;;;;63.08;26.27;;;-4.40;99.90;;;;;;5094327;28;20024;-81
2022/02/24 06:06:56;;;;;;;66.10;27.73;;;-4.40;99.90;;;;;;5095617;28;20026;-81
2022/02/24 06:09:22;;;;;;;64.50;30.13;;;-4.40;99.90;;;;;;5094295;28;20048;-81
2022/02/24 06:11:49;;;;;;;58.55;29.70;;;-4.40;99.90;;;;;;5094187;28;20473;-81
2022/02/24 06:14:15;;;;;;;69.85;29.27;;;-4.50;99.90;;;;;;5095322;28;20026;-81
2022/02/24 06:16:41;;;;;;;59.80;29.02;;;-4.50;99.90;;;;;;5093648;28;20032;-80
2022/02/24 06:19:07;;;;;;;73.00;29.95;;;-4.50;99.90;;;;;;5094953;28;20030;-81
2022/02/24 06:21:32;;;;;;;65.03;30.27;;;-4.40;99.90;;;;;;5095110;28;20028;-81
2022/02/24 06:23:58;;;;;;;79.82;31.25;;;-4.40;99.90;;;;;;5094159;28;20028;-80
2022/02/24 06:26:23;;;;;;;73.25;33.13;;;-4.30;99.90;;;;;;5095460;28;20024;-80
2022/02/24 06:28:49;;;;;;;79.07;34.60;;;-4.30;99.90;;;;;;5094031;28;20024;-80
2022/02/24 06:31:15;;;;;;;79.97;33.58;;;-4.20;99.90;;;;;;5095353;28;20418;-79
2022/02/24 06:33:40;;;;;;;61.65;28.38;;;-4.20;99.90;;;;;;5095243;28;20020;-80
2022/02/24 06:36:06;;;;;;;60.25;27.27;;;-4.10;99.90;;;;;;5095710;28;20027;-81
2022/02/24 06:38:31;;;;;;;61.60;28.60;;;-4.00;99.90;;;;;;5095752;28;20039;-81
2022/02/24 06:40:57;;;;;;;49.70;20.77;;;-3.90;99.90;;;;;;5100359;28;20026;-79
2022/02/24 06:43:23;;;;;;;66.72;27.58;;;-3.60;99.90;;;;;;5105146;28;20031;-80
2022/02/24 06:45:49;;;;;;;52.85;25.88;;;-3.50;99.90;;;;;;5103269;28;20488;-80
2022/02/24 06:48:16;;;;;;;82.72;33.78;;;-3.30;99.90;;;;;;5100050;28;20043;-80
2022/02/24 06:50:42;;;;;;;102.47;41.28;;;-3.10;99.90;;;;;;5093693;28;20025;-81
2022/02/24 06:53:08;;;;;;;100.05;44.08;;;-2.90;99.90;;;;;;5093662;28;20389;-74
2022/02/24 06:55:33;;;;;;;110.43;48.80;;;-2.80;99.90;;;;;;5097204;28;20032;-74
2022/02/24 06:57:59;;;;;;;104.60;44.65;;;-2.70;99.90;;;;;;5092649;27;20391;-76
2022/02/24 07:00:24;;;;;;;100.43;46.40;;;-2.50;99.90;;;;;;5103984;28;20073;-75
2022/02/24 07:02:52;;;;;;;86.45;39.65;;;-2.30;99.90;;;;;;5092494;28;20028;-75
2022/02/24 07:05:18;;;;;;;92.40;43.65;;;-2.10;99.90;;;;;;5110692;28;20026;-79
2022/02/24 07:07:44;;;;;;;102.05;44.90;;;-1.90;99.90;;;;;;5107149;27;20468;-80
2022/02/24 07:10:14;;;;;;;97.78;44.08;;;-1.70;99.90;;;;;;5110748;28;20062;-80
2022/02/24 07:12:44;;;;;;;84.63;37.38;;;-1.50;99.90;;;;;;5102449;28;20028;-80
2022/02/24 07:15:10;;;;;;;73.43;38.63;;;-1.30;99.90;;;;;;5093354;28;20055;-81
2022/02/24 07:17:44;;;;;;;78.63;35.35;;;-1.00;99.90;;;;;;5099449;27;20452;-81
2022/02/24 07:20:11;;;;;;;67.30;29.05;;;-0.80;99.90;;;;;;5111678;28;20376;-81
2022/02/24 07:22:37;;;;;;;54.13;23.20;;;-0.60;99.90;;;;;;5111974;28;20032;-81
2022/02/24 07:25:04;;;;;;;59.83;28.50;;;-0.40;99.90;;;;;;5112351;28;20031;-80
2022/02/24 07:27:29;;;;;;;54.25;26.27;;;-0.10;99.90;;;;;;5110965;28;20425;-80
2022/02/24 07:29:55;;;;;;;58.75;26.75;;;0.10;99.90;;;;;;5113134;28;20062;-80
2022/02/24 07:32:21;;;;;;;64.15;26.13;;;0.30;99.90;;;;;;5112820;27;20082;-81
2022/02/24 07:34:46;;;;;;;53.10;23.02;;;0.50;99.90;;;;;;5113659;28;20027;-82
2022/02/24 07:37:12;;;;;;;30.25;14.95;;;0.70;99.90;;;;;;5112943;27;20039;-81
2022/02/24 07:39:38;;;;;;;24.40;12.95;;;0.90;99.90;;;;;;5108577;28;20095;-82
2022/02/24 07:42:04;;;;;;;28.55;12.07;;;1.20;99.90;;;;;;5110189;27;20075;-81
2022/02/24 07:44:30;;;;;;;18.85;9.80;;;1.40;99.90;;;;;;5112150;28;20098;-82
2022/02/24 07:46:55;;;;;;;22.90;9.35;;;1.60;99.90;;;;;;5112167;27;20107;-81
2022/02/24 07:49:24;;;;;;;18.77;9.57;;;1.80;99.90;;;;;;5113290;28;20114;-82
2022/02/24 07:51:51;;;;;;;19.83;9.48;;;2.00;99.90;;;;;;5107012;27;20366;-81
2022/02/24 07:54:18;;;;;;;25.05;10.02;;;2.10;99.90;;;;;;5091730;28;20158;-82
2022/02/24 07:56:45;;;;;;;26.45;10.57;;;2.30;95.10;;;;;;5092265;28;20493;-81
2022/02/24 07:59:10;;;;;;;28.02;9.70;;;2.40;92.90;;;;;;5091023;27;20067;-81
2022/02/24 08:01:36;;;;;;;20.10;10.05;;;2.60;97.80;;;;;;5092970;28;20097;-80
2022/02/24 08:04:01;;;;;;;19.65;8.10;;;2.70;96.40;;;;;;5091042;27;20092;-82
2022/02/24 08:06:27;;;;;;;21.75;8.88;;;2.90;90.60;;;;;;5092805;28;20032;-82
2022/02/24 08:08:52;;;;;;;16.20;8.88;;;3.00;87.80;;;;;;5092720;27;20121;-79
2022/02/24 08:11:18;;;;;;;14.25;7.97;;;3.10;86.30;;;;;;5091859;28;20040;-78
2022/02/24 08:13:43;;;;;;;14.68;6.57;;;3.30;87.00;;;;;;5109550;27;20039;-79
2022/02/24 08:16:09;;;;;;;20.15;6.10;;;3.40;85.30;;;;;;5112764;28;20028;-79
2022/02/24 08:18:35;;;;;;;19.05;7.35;;;3.50;83.90;;;;;;5111267;27;20392;-79
2022/02/24 08:21:00;;;;;;;20.63;7.00;;;3.60;82.60;;;;;;5111424;28;20380;-80
2022/02/24 08:23:26;;;;;;;11.93;6.65;;;3.70;81.20;;;;;;5111292;27;20118;-80
2022/02/24 08:25:52;;;;;;;13.38;5.13;;;3.80;80.20;;;;;;5112613;28;20019;-79
2022/02/24 08:28:17;;;;;;;12.95;5.60;;;3.90;77.40;;;;;;5112061;27;20039;-80
2022/02/24 08:30:43;;;;;;;16.05;5.60;;;4.10;75.90;;;;;;5111627;28;20469;-81
2022/02/24 08:33:08;;;;;;;17.25;6.15;;;4.20;76.30;;;;;;5112203;27;20023;-81
2022/02/24 08:35:36;;;;;;;13.50;5.25;;;4.30;76.00;;;;;;5112987;28;20020;-83
2022/02/24 08:38:02;;;;;;;10.95;4.78;;;4.40;74.50;;;;;;5112303;27;20023;-80
2022/02/24 08:40:28;;;;;;;11.45;5.00;;;4.50;72.80;;;;;;5112546;28;20043;-80
2022/02/24 08:42:54;;;;;;;9.50;4.97;;;4.50;72.50;;;;;;5110687;27;20032;-80
2022/02/24 08:45:20;;;;;;;11.73;5.63;;;4.60;72.20;;;;;;5112482;28;20077;-81
2022/02/24 08:47:45;;;;;;;11.57;4.25;;;4.80;72.00;;;;;;5112217;27;20048;-82
2022/02/24 08:50:13;;;;;;;11.20;5.88;;;4.80;72.40;;;;;;5094457;28;20031;-81
2022/02/24 08:52:38;;;;;;;12.73;6.13;;;4.90;72.50;;;;;;5090804;27;20162;-81
2022/02/24 08:55:04;;;;;;;7.20;4.00;;;5.00;71.10;;;;;;5098934;28;20090;-80
2022/02/24 08:57:30;;;;;;;12.30;6.40;;;5.10;71.00;;;;;;5111307;28;20060;-82
2022/02/24 08:59:56;;;;;;;8.35;4.53;;;5.10;70.30;;;;;;5112290;27;20431;-81
2022/02/24 09:02:22;;;;;;;12.88;4.20;;;5.30;69.00;;;;;;5112215;28;20011;-80
2022/02/24 09:04:47;;;;;;;10.80;4.60;;;5.30;66.00;;;;;;5111079;28;20035;-82
2022/02/24 09:07:13;;;;;;;13.20;4.13;;;5.40;66.70;;;;;;5110605;28;20060;-84
2022/02/24 09:09:39;;;;;;;8.25;3.75;;;5.50;65.40;;;;;;5110921;28;20027;-82
2022/02/24 09:12:05;;;;;;;8.25;3.92;;;5.50;64.70;;;;;;5109738;28;20438;-82
2022/02/24 09:14:31;;;;;;;8.80;3.80;;;5.60;64.80;;;;;;5091472;27;20032;-82
2022/02/24 09:16:57;;;;;;;9.82;5.53;;;5.70;64.90;;;;;;5093283;28;20016;-84
2022/02/24 09:19:23;;;;;;;10.70;3.85;;;5.70;64.60;;;;;;5110542;27;20043;-83
2022/02/24 09:21:48;;;;;;;6.65;3.72;;;5.80;64.00;;;;;;5112230;28;20024;-83
2022/02/24 09:24:14;;;;;;;7.53;5.68;;;5.80;64.20;;;;;;5112345;27;20032;-82
2022/02/24 09:26:40;;;;;;;13.93;5.47;;;5.90;62.50;;;;;;5115187;28;20034;-83
2022/02/24 09:29:07;;;;;;;11.20;3.78;;;6.00;63.80;;;;;;5113977;27;20036;-82
2022/02/24 09:31:34;;;;;;;6.72;3.30;;;6.00;62.30;;;;;;5116181;27;20392;-83
2022/02/24 09:34:00;;;;;;;9.88;3.55;;;6.10;62.00;;;;;;5115519;27;20043;-83
2022/02/24 09:36:26;;;;;;;7.55;4.00;;;6.10;61.80;;;;;;5114359;28;20035;-83
2022/02/24 09:38:51;;;;;;;13.75;5.97;;;6.20;62.10;;;;;;5114233;28;20032;-83
2022/02/24 09:41:18;;;;;;;8.45;3.22;;;6.30;62.10;;;;;;5113812;28;20027;-83
2022/02/24 09:43:45;;;;;;;9.02;3.67;;;6.30;60.70;;;;;;5096932;28;20032;-83
2022/02/24 09:46:12;;;;;;;5.47;3.63;;;6.40;61.10;;;;;;5093782;28;20058;-82
2022/02/24 09:48:42;;;;;;;11.60;4.07;;;6.50;60.80;;;;;;5092748;28;20044;-82
2022/02/24 09:51:14;;;;;;;6.45;3.60;;;6.60;59.70;;;;;;5115315;27;20016;-81
2022/02/24 09:53:40;;;;;;;6.07;2.83;;;6.60;59.40;;;;;;5114222;28;20058;-80
2022/02/24 09:56:12;;;;;;;5.13;2.72;;;6.70;58.10;;;;;;5113392;28;20015;-82
2022/02/24 09:58:37;;;;;;;6.60;2.67;;;6.70;58.40;;;;;;5115081;27;20089;-81
2022/02/24 10:01:03;;;;;;;6.25;2.80;;;6.80;56.40;;;;;;5114065;28;20052;-81
2022/02/24 10:03:35;;;;;;;8.40;3.47;;;6.80;56.20;;;;;;5112685;27;20395;-81
2022/02/24 10:06:02;;;;;;;10.18;2.60;;;6.80;55.10;;;;;;5113917;28;20027;-81
2022/02/24 10:08:30;;;;;;;5.50;3.00;;;7.00;54.90;;;;;;5113838;28;20028;-81
2022/02/24 10:10:58;;;;;;;7.32;2.55;;;7.10;54.90;;;;;;5114660;28;20022;-81
2022/02/24 10:13:24;;;;;;;7.88;2.80;;;7.10;53.10;;;;;;5113235;28;20475;-80
2022/02/24 10:15:57;;;;;;;6.30;2.70;;;7.10;54.00;;;;;;5111728;27;20039;-82
2022/02/24 10:18:24;;;;;;;5.55;2.88;;;7.20;55.20;;;;;;5113152;28;20034;-81
2022/02/24 10:21:00;;;;;;;9.57;2.20;;;7.20;55.70;;;;;;5113288;27;20035;-81
2022/02/24 10:23:37;;;;;;;8.80;3.10;;;7.20;54.70;;;;;;5112160;28;20020;-81
2022/02/24 10:26:09;;;;;;;5.60;2.92;;;7.20;54.90;;;;;;5112385;27;20444;-81
2022/02/24 10:28:49;;;;;;;5.72;3.05;;;7.30;55.00;;;;;;5114681;28;20114;-81
2022/02/24 10:31:26;;;;;;;4.95;2.45;;;7.40;53.90;;;;;;5115283;28;20055;-81
2022/02/24 10:33:53;;;;;;;5.03;2.40;;;7.40;53.20;;;;;;5112816;27;20023;-81
2022/02/24 10:36:26;;;;;;;7.20;2.85;;;7.50;53.30;;;;;;5113204;28;20428;-79
2022/02/24 10:39:23;;;;;;;;;;;7.60;52.90;;;;;;5111061;28;20028;-81
2022/02/24 10:41:50;;;;;;;11.38;2.90;;;7.60;51.30;;;;;;5077269;28;19911;-81
2022/02/24 10:44:24;;;;;;;8.43;2.38;;;7.70;52.40;;;;;;5113036;27;20383;-81
2022/02/24 10:46:51;;;;;;;8.35;2.58;;;7.70;51.50;;;;;;5114442;28;20443;-81
2022/02/24 10:49:29;;;;;;;6.30;2.58;;;7.80;52.60;;;;;;5112658;27;20548;-81
2022/02/24 10:52:10;;;;;;;9.13;2.65;;;7.80;51.10;;;;;;5113251;28;20028;-80
2022/02/24 10:54:36;;;;;;;6.10;2.63;;;7.90;49.50;;;;;;5112383;27;20043;-80
2022/02/24 10:57:15;;;;;;;7.57;1.92;;;7.90;48.20;;;;;;5114198;28;20020;-81
2022/02/24 10:59:41;;;;;;;4.70;1.88;;;7.90;47.10;;;;;;5101548;28;20043;-81
2022/02/24 11:02:06;;;;;;;5.43;1.92;;;8.00;46.00;;;;;;5093920;28;20020;-80
2022/02/24 11:04:32;;;;;;;3.45;2.25;;;8.00;46.70;;;;;;5093585;27;20115;-80
2022/02/24 11:06:58;;;;;;;5.93;2.60;;;8.10;49.00;;;;;;5092390;28;20020;-81
2022/02/24 11:09:25;;;;;;;5.18;2.10;;;8.20;46.90;;;;;;5091706;27;20481;-81
2022/02/24 11:11:51;;;;;;;4.30;2.88;;;8.20;45.00;;;;;;5093668;28;20057;-82
2022/02/24 11:14:19;;;;;;;6.45;2.78;;;8.30;45.90;;;;;;5112450;28;20023;-78
2022/02/24 11:16:47;;;;;;;9.43;2.50;;;8.40;46.00;;;;;;5112351;28;20163;-80
2022/02/24 11:19:15;;;;;;;5.55;3.33;;;8.40;46.80;;;;;;5113477;28;20019;-83
2022/02/24 11:21:43;;;;;;;5.55;3.28;;;8.50;45.60;;;;;;5111680;27;20111;-80
2022/02/24 11:24:09;;;;;;;5.50;2.88;;;8.50;45.70;;;;;;5111011;28;20538;-83
2022/02/24 11:26:43;;;;;;;4.68;2.72;;;8.50;44.50;;;;;;5110182;28;20039;-82
2022/02/24 11:29:08;;;;;;;7.75;2.85;;;8.60;44.70;;;;;;5109584;28;20114;-82
2022/02/24 11:31:52;;;;;;;6.15;3.13;;;8.70;45.10;;;;;;5110354;28;20547;-82
2022/02/24 11:34:37;;;;;;;4.80;2.58;;;8.70;43.00;;;;;;5111107;28;20089;-82
2022/02/24 11:37:20;;;;;;;3.70;2.40;;;8.80;43.40;;;;;;5113327;28;20077;-80
2022/02/24 11:39:46;;;;;;;5.35;2.58;;;8.80;43.50;;;;;;5113029;27;20488;-78
2022/02/24 11:42:23;;;;;;;7.32;3.40;;;9.00;43.10;;;;;;5112331;28;20055;-79
2022/02/24 11:44:49;;;;;;;8.02;2.97;;;9.00;43.10;;;;;;5112114;28;20028;-78
2022/02/24 11:47:14;;;;;;;3.92;3.40;;;9.00;43.50;;;;;;5094113;28;20184;-79
2022/02/24 11:49:55;;;;;;;9.45;2.70;;;9.10;43.20;;;;;;5113572;27;20027;-79
2022/02/24 11:52:27;;;;;;;5.30;3.03;;;9.10;42.40;;;;;;5113335;28;20069;-79
2022/02/24 11:54:53;;;;;;;4.88;2.75;;;9.20;42.20;;;;;;5111464;28;20016;-79
2022/02/24 11:57:32;;;;;;;6.95;3.13;;;9.20;41.20;;;;;;5113011;28;20016;-80
2022/02/24 12:00:19;;;;;;;4.95;2.90;;;9.20;41.80;;;;;;5094576;27;20028;-79
2022/02/24 12:02:49;;;;;;;7.53;2.70;;;9.20;41.90;;;;;;5091147;28;20116;-79
2022/02/24 12:05:33;;;;;;;12.65;3.67;;;9.30;42.30;;;;;;5090878;27;20020;-79
2022/02/24 12:08:13;;;;;;;4.95;2.40;;;9.30;43.00;;;;;;5089872;28;20123;-79
2022/02/24 12:10:47;;;;;;;6.38;3.25;;;9.30;42.20;;;;;;5091212;28;20040;-80
2022/02/24 12:13:29;;;;;;;6.97;3.03;;;9.30;41.20;;;;;;5104908;28;20387;-78
2022/02/24 12:16:12;;;;;;;6.68;3.20;;;9.30;42.20;;;;;;5111462;27;20031;-80
2022/02/24 12:18:39;;;;;;;5.10;2.72;;;9.30;40.40;;;;;;5113224;28;20015;-79
2022/02/24 12:21:26;;;;;;;4.30;2.55;;;9.40;39.80;;;;;;5112591;27;20508;-80
2022/02/24 12:23:54;;;;;;;6.65;3.60;;;9.40;41.20;;;;;;5110432;28;20031;-78
2022/02/24 12:26:39;;;;;;;6.75;4.75;;;9.50;42.20;;;;;;5109687;28;20089;-79
2022/02/24 12:29:29;;;;;;;8.23;3.70;;;9.50;41.30;;;;;;5091951;28;20085;-82
2022/02/24 12:31:57;;;;;;;7.80;3.60;;;9.50;42.50;;;;;;5091942;27;20040;-80
2022/02/24 12:34:27;;;;;;;9.00;3.42;;;9.60;40.80;;;;;;5090853;28;20110;-80
2022/02/24 12:37:06;;;;;;;9.52;3.58;;;9.60;42.70;;;;;;5092037;27;20071;-80
2022/02/24 12:39:34;;;;;;;5.95;3.45;;;9.70;41.60;;;;;;5091794;28;20479;-79
2022/02/24 12:42:01;;;;;;;6.15;3.47;;;9.70;43.00;;;;;;5092778;28;20551;-80
2022/02/24 12:44:27;;;;;;;5.28;3.63;;;9.70;42.30;;;;;;5112451;28;20024;-80
2022/02/24 12:46:53;;;;;;;8.40;4.90;;;9.70;42.30;;;;;;5095147;28;20044;-79
2022/02/24 12:49:19;;;;;;;10.57;4.32;;;9.80;42.50;;;;;;5102237;28;20027;-79
2022/02/24 12:51:45;;;;;;;9.05;3.85;;;9.90;43.50;;;;;;5111852;28;20028;-79
2022/02/24 12:54:16;;;;;;;12.05;6.28;;;9.90;42.10;;;;;;5113165;28;20016;-79